createdAt,value
2022-08-16T00:02:30.956Z,7.10
2022-08-16T00:07:37.158Z,6.60
2022-08-16T00:12:43.119Z,6.60
2022-08-16T00:17:56.526Z,6.10
2022-08-16T00:22:56.615Z,6.73
2022-08-16T00:28:03.720Z,7.47
2022-08-16T00:33:10.105Z,6.70
2022-08-16T00:38:40.718Z,6.77
2022-08-16T00:43:42.901Z,6.37
2022-08-16T00:48:45.660Z,6.50
2022-08-16T00:53:53.866Z,7.13
2022-08-16T00:59:01.240Z,6.20
2022-08-16T01:04:29.245Z,6.53
2022-08-16T01:09:15.822Z,7.67
2022-08-16T01:14:30.218Z,6.73
2022-08-16T01:19:42.143Z,6.70
2022-08-16T01:24:55.623Z,6.63
2022-08-16T01:30:28.063Z,7.93
2022-08-16T01:35:40.025Z,6.67
2022-08-16T01:40:48.563Z,8.00
2022-08-16T01:45:59.994Z,6.73
2022-08-16T01:51:16.736Z,6.43
2022-08-16T01:56:23.354Z,7.40
2022-08-16T02:01:28.128Z,8.03
2022-08-16T02:06:38.005Z,7.90
2022-08-16T02:11:48.256Z,8.10
2022-08-16T02:16:53.213Z,8.80
2022-08-16T02:22:08.976Z,7.87
2022-08-16T02:27:07.627Z,7.97
2022-08-16T02:32:50.537Z,7.27
2022-08-16T02:37:24.078Z,10.93
2022-08-16T02:42:33.127Z,7.83
2022-08-16T02:48:00.606Z,10.00
2022-08-16T02:52:50.272Z,8.27
2022-08-16T02:57:56.262Z,8.80
2022-08-16T03:03:03.777Z,8.33
2022-08-16T03:08:50.402Z,9.80
2022-08-16T03:13:21.177Z,8.97
2022-08-16T03:18:40.283Z,8.50
2022-08-16T03:23:36.451Z,9.33
2022-08-16T03:28:43.269Z,10.07
2022-08-16T03:33:52.156Z,9.83
2022-08-16T03:38:58.089Z,11.80
2022-08-16T03:44:04.060Z,10.03
2022-08-16T03:49:13.126Z,9.20
2022-08-16T03:54:20.526Z,9.27
2022-08-16T03:59:29.913Z,9.37
2022-08-16T04:04:37.071Z,9.73
2022-08-16T04:09:43.054Z,9.20
2022-08-16T04:14:49.522Z,9.67
2022-08-16T04:19:58.368Z,8.97
2022-08-16T04:25:08.211Z,8.70
2022-08-16T04:30:31.977Z,8.83
2022-08-16T04:35:34.181Z,8.27
2022-08-16T04:40:38.276Z,9.50
2022-08-16T04:45:47.789Z,9.07
2022-08-16T04:50:57.317Z,11.55
2022-08-16T04:56:11.998Z,9.07
2022-08-16T05:01:18.834Z,8.50
2022-08-16T05:06:42.224Z,9.43
2022-08-16T05:11:32.344Z,8.27
2022-08-16T05:16:39.213Z,7.57
2022-08-16T05:21:46.520Z,9.60
2022-08-16T05:26:52.289Z,8.33
2022-08-16T05:31:58.577Z,8.53
2022-08-16T05:37:04.908Z,8.07
2022-08-16T05:42:12.258Z,10.23
2022-08-16T05:47:18.532Z,9.77
2022-08-16T05:52:27.894Z,9.50
2022-08-16T05:57:35.603Z,10.20
2022-08-16T06:02:41.689Z,9.73
2022-08-16T06:08:05.986Z,10.63
2022-08-16T06:13:13.391Z,8.60
2022-08-16T06:18:21.514Z,8.67
2022-08-16T06:23:28.823Z,8.60
2022-08-16T06:28:37.664Z,9.20
2022-08-16T06:33:46.917Z,8.87
2022-08-16T06:38:56.625Z,8.20
2022-08-16T06:44:04.290Z,8.73
2022-08-16T06:49:13.547Z,7.87
2022-08-16T06:54:20.233Z,8.73
2022-08-16T06:59:26.133Z,7.70
2022-08-16T07:04:37.107Z,7.47
2022-08-16T07:09:49.753Z,7.17
2022-08-16T07:14:59.996Z,7.50
2022-08-16T07:20:34.889Z,7.30
2022-08-16T07:25:17.231Z,7.73
2022-08-16T07:30:39.636Z,7.03
2022-08-16T07:35:32.048Z,7.20
2022-08-16T07:41:00.117Z,6.90
2022-08-16T07:45:53.122Z,6.73
2022-08-16T07:50:59.708Z,8.00
2022-08-16T07:56:04.456Z,7.40
2022-08-16T08:01:24.817Z,8.27
2022-08-16T08:06:34.359Z,7.77
2022-08-16T08:12:00.717Z,8.13
2022-08-16T08:16:53.775Z,7.47
2022-08-16T08:22:05.860Z,7.40
2022-08-16T08:27:10.637Z,6.50
2022-08-16T08:32:46.746Z,7.20
2022-08-16T08:37:24.261Z,7.50
2022-08-16T08:42:31.800Z,7.17
2022-08-16T08:47:39.824Z,7.50
2022-08-16T08:52:48.319Z,6.90
2022-08-16T08:57:54.402Z,6.47
2022-08-16T09:03:04.831Z,6.83
2022-08-16T09:08:17.359Z,5.93
2022-08-16T09:13:23.362Z,6.90
2022-08-16T09:18:35.723Z,6.13
2022-08-16T09:23:37.750Z,6.30
2022-08-16T09:29:14.985Z,6.80
2022-08-16T09:33:54.925Z,5.57
2022-08-16T09:39:03.778Z,5.83
2022-08-16T09:45:11.952Z,6.07
2022-08-16T09:49:19.896Z,5.83
2022-08-16T09:54:32.409Z,6.43
2022-08-16T09:59:38.517Z,5.93
2022-08-16T10:04:54.496Z,6.63
2022-08-16T10:09:55.492Z,6.23
2022-08-16T10:14:59.824Z,7.00
2022-08-16T10:20:06.784Z,6.23
2022-08-16T10:27:19.481Z,6.27
2022-08-16T10:30:26.141Z,6.40
2022-08-16T10:35:32.930Z,6.97
2022-08-16T10:40:36.018Z,7.00
2022-08-16T10:45:43.239Z,7.12
2022-08-16T10:50:51.471Z,6.78
2022-08-16T10:56:01.430Z,6.30
2022-08-16T11:06:21.453Z,6.30
2022-08-16T11:11:26.949Z,6.80
2022-08-16T11:32:04.641Z,6.95
2022-08-16T11:37:27.271Z,6.12
2022-08-16T11:42:28.205Z,6.73
2022-08-16T11:47:27.291Z,6.10
2022-08-16T11:52:34.041Z,6.70
2022-08-16T11:57:41.387Z,6.67
2022-08-16T12:02:47.960Z,6.22
2022-08-16T12:07:55.389Z,6.58
2022-08-16T12:13:02.733Z,6.22
2022-08-16T12:18:09.691Z,7.00
2022-08-16T12:23:15.249Z,7.03
2022-08-16T12:28:37.054Z,6.53
2022-08-16T12:33:32.019Z,6.50
2022-08-16T12:38:46.772Z,7.58
2022-08-16T12:43:46.619Z,6.95
2022-08-16T12:48:58.916Z,7.40
2022-08-16T12:54:07.594Z,6.78
2022-08-16T12:59:19.769Z,7.20
2022-08-16T13:04:24.695Z,6.17
2022-08-16T13:09:31.660Z,6.33
2022-08-16T13:14:41.517Z,6.75
2022-08-16T13:24:56.542Z,6.83
2022-08-16T13:30:02.758Z,8.03
2022-08-16T13:35:11.690Z,7.97
2022-08-16T13:40:19.655Z,7.50
2022-08-16T13:45:26.275Z,7.78
2022-08-16T13:50:49.355Z,7.65
2022-08-16T13:55:40.927Z,7.78
2022-08-16T14:00:46.751Z,7.45
2022-08-16T14:05:54.053Z,7.42
2022-08-16T14:10:59.619Z,7.65
2022-08-16T14:16:12.643Z,7.55
2022-08-16T14:21:13.306Z,8.40
2022-08-16T14:26:19.954Z,8.73
2022-08-16T14:31:27.086Z,7.87
2022-08-16T14:36:34.025Z,7.60
2022-08-16T14:41:40.976Z,7.67
2022-08-16T14:46:46.556Z,9.23
2022-08-16T14:51:52.330Z,9.03
2022-08-16T14:56:58.318Z,7.83
2022-08-16T15:02:05.169Z,8.45
2022-08-16T15:07:12.715Z,7.97
2022-08-16T15:12:27.077Z,8.15
2022-08-16T15:17:34.053Z,7.72
2022-08-16T15:22:39.345Z,7.47
2022-08-16T15:27:54.672Z,7.60
2022-08-16T15:32:57.427Z,7.60
2022-08-16T15:38:08.909Z,7.37
2022-08-16T15:43:11.990Z,7.78
2022-08-16T15:48:17.815Z,7.45
2022-08-16T15:53:27.584Z,7.75
2022-08-16T15:58:38.625Z,7.80
2022-08-16T16:03:42.233Z,7.40
2022-08-16T16:08:49.103Z,7.87
2022-08-16T16:13:56.693Z,7.15
2022-08-16T16:19:03.109Z,7.03
2022-08-16T16:24:21.028Z,6.90
2022-08-16T16:29:16.253Z,8.00
2022-08-16T16:34:23.858Z,6.87
2022-08-16T16:39:32.647Z,7.10
2022-08-16T16:44:38.783Z,6.53
2022-08-16T16:49:45.983Z,6.40
2022-08-16T16:54:51.489Z,6.40
2022-08-16T16:59:58.778Z,6.50
2022-08-16T17:05:08.494Z,6.20
2022-08-16T17:10:14.288Z,5.72
2022-08-16T17:15:23.337Z,6.25
2022-08-16T17:20:30.120Z,6.80
2022-08-16T17:30:45.074Z,6.22
2022-08-16T17:35:55.179Z,6.75
2022-08-16T17:39:26.769Z,6.87
2022-08-16T17:41:00.570Z,8.10
2022-08-16T17:46:41.427Z,6.25
2022-08-16T17:51:15.724Z,6.30
2022-08-16T17:56:21.484Z,6.30
2022-08-16T18:01:28.315Z,6.50
2022-08-16T18:06:33.834Z,6.47
2022-08-16T18:11:41.110Z,6.35
2022-08-16T18:16:49.345Z,7.03
2022-08-16T18:22:16.119Z,6.47
2022-08-16T18:27:25.646Z,6.92
2022-08-16T18:32:30.662Z,7.40
2022-08-16T18:37:36.195Z,7.30
2022-08-16T18:42:43.462Z,6.63
2022-08-16T18:47:49.267Z,6.90
2022-08-16T18:52:58.086Z,6.80
2022-08-16T18:58:04.085Z,6.27
2022-08-16T19:03:19.375Z,6.30
2022-08-16T19:08:25.052Z,6.27
2022-08-16T19:13:33.566Z,6.27
2022-08-16T19:18:39.242Z,10.00
2022-08-16T19:23:45.535Z,7.70
2022-08-16T19:28:59.018Z,6.53
2022-08-16T19:33:59.931Z,6.60
2022-08-16T19:39:11.465Z,6.47
2022-08-16T19:44:20.288Z,9.10
2022-08-16T19:49:25.941Z,7.00
2022-08-16T19:54:31.534Z,6.90
2022-08-16T19:59:40.963Z,7.00
2022-08-16T20:04:48.661Z,7.03
2022-08-16T20:09:54.666Z,6.70
2022-08-16T20:15:00.225Z,6.73
2022-08-16T20:20:08.144Z,6.67
2022-08-16T20:25:18.820Z,6.57
2022-08-16T20:30:24.844Z,6.87
2022-08-16T20:35:30.868Z,7.17
2022-08-16T20:40:36.734Z,7.67
2022-08-16T20:45:45.190Z,6.63
2022-08-16T20:50:50.864Z,7.33
2022-08-16T20:55:56.865Z,8.07
2022-08-16T21:01:03.528Z,7.50
2022-08-16T21:06:09.372Z,8.47
2022-08-16T21:11:16.482Z,7.37
2022-08-16T21:16:22.656Z,7.43
2022-08-16T21:21:32.013Z,8.07
2022-08-16T21:26:38.855Z,7.17
2022-08-16T21:31:44.776Z,8.10
2022-08-16T21:36:50.442Z,7.57
2022-08-16T21:41:55.922Z,7.70
2022-08-16T21:47:01.471Z,7.43
2022-08-16T21:52:08.756Z,8.13
2022-08-16T21:57:14.341Z,6.97
2022-08-16T22:02:22.686Z,8.30
2022-08-16T22:07:28.331Z,8.53
2022-08-16T22:12:34.121Z,7.60
2022-08-16T22:17:40.596Z,8.37
2022-08-16T22:22:48.542Z,7.83
2022-08-16T22:27:54.177Z,8.00
2022-08-16T22:32:59.848Z,7.87
2022-08-16T22:38:55.242Z,7.37
2022-08-16T22:43:14.364Z,8.27
2022-08-16T22:48:20.138Z,7.70
2022-08-16T22:53:27.122Z,8.27
2022-08-16T22:58:36.317Z,8.30
2022-08-16T23:03:40.161Z,7.60
2022-08-16T23:08:46.068Z,7.43
2022-08-16T23:13:54.862Z,9.57
2022-08-16T23:19:00.783Z,8.27
2022-08-16T23:24:07.024Z,9.80
2022-08-16T23:29:22.484Z,7.80
2022-08-16T23:34:19.938Z,8.67
2022-08-16T23:39:25.965Z,8.57
2022-08-16T23:44:41.890Z,9.77
2022-08-16T23:49:57.594Z,8.10
2022-08-16T23:54:46.496Z,8.70
2022-08-16T23:59:53.758Z,8.27
